createdAt,value
2023-04-21T00:00:52.682Z,36.98
2023-04-21T00:03:21.926Z,36.87
2023-04-21T00:05:48.758Z,36.77
2023-04-21T00:08:16.856Z,36.86
2023-04-21T00:10:43.955Z,36.85
2023-04-21T00:13:10.903Z,36.88
2023-04-21T00:15:37.533Z,37.07
2023-04-21T00:18:04.508Z,36.90
2023-04-21T00:20:31.490Z,36.98
2023-04-21T00:22:58.626Z,37.08
2023-04-21T00:25:25.933Z,36.74
2023-04-21T00:27:52.592Z,36.84
2023-04-21T00:30:19.264Z,37.00
2023-04-21T00:32:46.240Z,36.75
2023-04-21T00:35:12.846Z,36.64
2023-04-21T00:37:40.411Z,36.96
2023-04-21T00:40:07.792Z,36.79
2023-04-21T00:42:37.017Z,36.63
2023-04-21T00:45:06.002Z,36.78
2023-04-21T00:47:32.725Z,36.52
2023-04-21T00:49:59.687Z,36.98
2023-04-21T00:52:27.152Z,36.85
2023-04-21T00:54:54.209Z,36.77
2023-04-21T00:57:21.476Z,36.40
2023-04-21T00:59:48.328Z,36.60
2023-04-21T01:02:17.002Z,36.90
2023-04-21T01:04:45.483Z,36.90
2023-04-21T01:07:12.859Z,36.55
2023-04-21T01:09:39.680Z,36.78
2023-04-21T01:12:11.158Z,36.64
2023-04-21T01:14:39.114Z,36.54
2023-04-21T01:17:06.244Z,36.85
2023-04-21T01:19:35.757Z,36.90
2023-04-21T01:22:03.747Z,36.74
2023-04-21T01:24:40.892Z,36.60
2023-04-21T01:27:19.034Z,36.87
2023-04-21T01:29:50.672Z,36.52
2023-04-21T01:32:20.406Z,36.75
2023-04-21T01:34:47.951Z,36.86
2023-04-21T01:37:20.965Z,36.78
2023-04-21T01:39:54.303Z,37.08
2023-04-21T01:42:26.864Z,36.99
2023-04-21T01:44:54.576Z,37.38
2023-04-21T01:47:22.434Z,37.62
2023-04-21T01:49:49.111Z,37.72
2023-04-21T01:52:15.969Z,37.95
2023-04-21T01:54:42.654Z,37.80
2023-04-21T01:57:09.373Z,37.62
2023-04-21T01:59:37.239Z,37.65
2023-04-21T02:02:04.526Z,37.92
2023-04-21T02:04:33.701Z,37.48
2023-04-21T02:07:00.423Z,37.43
2023-04-21T02:09:27.038Z,37.47
2023-04-21T02:11:55.421Z,37.71
2023-04-21T02:14:22.037Z,37.23
2023-04-21T02:16:48.661Z,37.59
2023-04-21T02:19:15.279Z,37.56
2023-04-21T02:21:41.843Z,37.39
2023-04-21T02:24:08.434Z,37.58
2023-04-21T02:26:35.040Z,37.49
2023-04-21T02:29:02.175Z,37.42
2023-04-21T02:31:29.162Z,37.56
2023-04-21T02:33:55.988Z,37.41
2023-04-21T02:36:22.534Z,37.34
2023-04-21T02:38:49.094Z,37.68
2023-04-21T02:41:15.673Z,37.17
2023-04-21T02:43:42.230Z,37.62
2023-04-21T02:46:09.174Z,37.42
2023-04-21T02:48:36.430Z,37.57
2023-04-21T02:51:04.272Z,37.45
2023-04-21T02:53:31.648Z,37.34
2023-04-21T02:55:58.303Z,37.69
2023-04-21T02:58:25.499Z,37.44
2023-04-21T03:00:52.113Z,37.38
2023-04-21T03:03:19.075Z,37.20
2023-04-21T03:05:45.972Z,37.64
2023-04-21T03:08:12.614Z,37.38
2023-04-21T03:10:39.215Z,37.55
2023-04-21T03:13:06.006Z,37.58
2023-04-21T03:15:32.549Z,37.39
2023-04-21T03:18:01.798Z,37.72
2023-04-21T03:20:28.704Z,37.74
2023-04-21T03:22:55.313Z,37.75
2023-04-21T03:25:22.223Z,37.83
2023-04-21T03:27:49.218Z,37.53
2023-04-21T03:30:15.884Z,37.93
2023-04-21T03:32:42.594Z,38.00
2023-04-21T03:35:09.300Z,37.72
2023-04-21T03:37:36.057Z,37.99
2023-04-21T03:40:06.076Z,38.11
2023-04-21T03:42:33.348Z,37.96
2023-04-21T03:45:03.917Z,38.21
2023-04-21T03:47:33.446Z,38.29
2023-04-21T03:50:00.263Z,38.47
2023-04-21T03:52:26.854Z,38.46
2023-04-21T03:54:53.798Z,38.23
2023-04-21T03:57:20.658Z,38.32
2023-04-21T03:59:47.169Z,38.60
2023-04-21T04:02:13.807Z,38.29
2023-04-21T04:04:40.562Z,38.37
2023-04-21T04:07:08.768Z,38.27
2023-04-21T04:09:35.364Z,38.01
2023-04-21T04:12:03.382Z,38.11
2023-04-21T04:14:30.296Z,38.56
2023-04-21T04:16:58.741Z,38.60
2023-04-21T04:19:30.865Z,38.64
2023-04-21T04:22:01.280Z,38.92
2023-04-21T04:24:28.215Z,38.96
2023-04-21T04:26:55.280Z,39.02
2023-04-21T04:29:22.686Z,39.22
2023-04-21T04:31:52.332Z,39.49
2023-04-21T04:34:19.607Z,39.79
2023-04-21T04:36:48.001Z,39.88
2023-04-21T04:39:16.356Z,39.90
2023-04-21T04:41:43.156Z,40.06
2023-04-21T04:44:11.466Z,40.37
2023-04-21T04:46:39.309Z,40.66
2023-04-21T04:49:05.974Z,40.49
2023-04-21T04:51:32.772Z,40.61
2023-04-21T04:53:59.493Z,40.70
2023-04-21T04:56:26.021Z,40.71
2023-04-21T04:58:52.710Z,40.60
2023-04-21T05:01:19.431Z,40.74
2023-04-21T05:03:46.843Z,40.53
2023-04-21T05:06:14.330Z,40.91
2023-04-21T05:08:43.740Z,40.72
2023-04-21T05:11:10.320Z,40.27
2023-04-21T05:13:39.632Z,40.13
2023-04-21T05:16:07.284Z,39.88
2023-04-21T05:18:33.827Z,39.65
2023-04-21T05:21:00.521Z,39.46
2023-04-21T05:23:27.304Z,39.48
2023-04-21T05:25:53.852Z,39.19
2023-04-21T05:28:20.488Z,38.86
2023-04-21T05:30:47.119Z,39.13
2023-04-21T05:33:13.930Z,38.79
2023-04-21T05:35:40.705Z,38.26
2023-04-21T05:38:07.263Z,38.19
2023-04-21T05:40:34.020Z,38.08
2023-04-21T05:43:00.650Z,38.01
2023-04-21T05:45:27.167Z,38.02
2023-04-21T05:47:53.722Z,38.11
2023-04-21T05:50:20.389Z,37.98
2023-04-21T05:52:46.938Z,37.56
2023-04-21T05:55:13.705Z,37.64
2023-04-21T05:57:40.338Z,37.54
2023-04-21T06:00:07.638Z,37.65
2023-04-21T06:02:34.305Z,37.81
2023-04-21T06:05:01.220Z,37.43
2023-04-21T06:07:28.146Z,37.67
2023-04-21T06:09:57.145Z,37.27
2023-04-21T06:12:23.687Z,37.48
2023-04-21T06:14:50.417Z,37.33
2023-04-21T06:17:17.955Z,37.20
2023-04-21T06:19:44.767Z,37.46
2023-04-21T06:22:11.322Z,37.29
2023-04-21T06:24:37.868Z,37.15
2023-04-21T06:27:09.363Z,37.32
2023-04-21T06:29:36.209Z,37.31
2023-04-21T06:32:02.859Z,37.10
2023-04-21T06:34:29.726Z,37.03
2023-04-21T06:36:56.258Z,36.98
2023-04-21T06:39:22.850Z,36.92
2023-04-21T06:41:49.435Z,36.75
2023-04-21T06:44:17.830Z,36.77
2023-04-21T06:46:44.705Z,36.77
2023-04-21T06:49:11.864Z,37.12
2023-04-21T06:51:39.373Z,36.68
2023-04-21T06:54:06.183Z,36.71
2023-04-21T06:56:33.372Z,36.89
2023-04-21T06:59:00.374Z,36.86
2023-04-21T07:01:26.994Z,36.90
2023-04-21T07:03:53.845Z,36.92
2023-04-21T07:06:20.535Z,36.86
2023-04-21T07:08:47.126Z,36.68
2023-04-21T07:11:15.548Z,36.82
2023-04-21T07:13:42.086Z,36.70
2023-04-21T07:16:08.662Z,36.78
2023-04-21T07:18:35.296Z,36.56
2023-04-21T07:21:01.881Z,36.73
2023-04-21T07:23:28.545Z,36.48
2023-04-21T07:25:57.752Z,36.45
2023-04-21T07:28:24.408Z,36.77
2023-04-21T07:30:53.872Z,36.45
2023-04-21T07:33:20.557Z,36.71
2023-04-21T07:35:47.306Z,36.73
2023-04-21T07:38:13.860Z,36.57
2023-04-21T07:40:40.807Z,36.39
2023-04-21T07:43:07.366Z,36.76
2023-04-21T07:45:33.876Z,36.34
2023-04-21T07:48:00.602Z,36.42
2023-04-21T07:50:27.230Z,36.39
2023-04-21T07:52:53.798Z,36.26
2023-04-21T07:55:23.318Z,36.19
2023-04-21T07:57:50.457Z,36.20
2023-04-21T08:00:17.398Z,36.18
2023-04-21T08:02:44.115Z,36.36
2023-04-21T08:05:11.212Z,36.23
2023-04-21T08:07:38.863Z,36.22
2023-04-21T08:10:07.801Z,36.26
2023-04-21T08:12:34.462Z,36.43
2023-04-21T08:15:05.709Z,36.49
2023-04-21T08:17:32.391Z,36.37
2023-04-21T08:19:59.677Z,36.08
2023-04-21T08:22:26.682Z,36.48
2023-04-21T08:24:53.302Z,36.37
2023-04-21T08:27:19.977Z,36.10
2023-04-21T08:29:46.626Z,36.07
2023-04-21T08:32:13.640Z,36.37
2023-04-21T08:34:40.364Z,36.37
2023-04-21T08:37:06.945Z,36.37
2023-04-21T08:39:33.769Z,36.22
2023-04-21T08:42:02.314Z,36.19
2023-04-21T08:44:28.860Z,36.29
2023-04-21T08:46:56.720Z,36.37
2023-04-21T08:49:24.471Z,36.05
2023-04-21T08:51:51.330Z,36.49
2023-04-21T08:54:17.913Z,36.23
2023-04-21T08:56:44.502Z,36.26
2023-04-21T08:59:11.166Z,36.22
2023-04-21T09:02:10.208Z,36.29
2023-04-21T09:04:45.139Z,36.12
2023-04-21T09:07:12.906Z,35.97
2023-04-21T09:09:52.484Z,36.25
2023-04-21T09:12:19.542Z,36.13
2023-04-21T09:14:46.551Z,35.92
2023-04-21T09:17:16.305Z,36.26
2023-04-21T09:19:43.379Z,36.03
2023-04-21T09:22:14.117Z,36.32
2023-04-21T09:24:58.088Z,35.91
2023-04-21T09:27:24.783Z,35.84
2023-04-21T09:29:51.649Z,35.82
2023-04-21T09:32:19.717Z,35.92
2023-04-21T09:34:47.378Z,35.91
2023-04-21T09:37:18.988Z,35.67
2023-04-21T09:40:03.609Z,35.73
2023-04-21T09:42:39.270Z,36.04
2023-04-21T09:45:29.038Z,35.76
2023-04-21T09:47:59.105Z,35.70
2023-04-21T09:51:01.785Z,35.76
2023-04-21T09:53:17.069Z,35.30
2023-04-21T09:55:48.318Z,35.09
2023-04-21T09:58:19.631Z,35.31
2023-04-21T10:00:47.288Z,34.92
2023-04-21T10:03:17.413Z,35.33
2023-04-21T10:05:44.266Z,35.30
2023-04-21T10:08:12.082Z,35.10
2023-04-21T10:10:39.236Z,35.11
2023-04-21T10:13:05.990Z,35.21
2023-04-21T10:15:35.575Z,34.87
2023-04-21T10:18:22.457Z,35.11
2023-04-21T10:20:56.503Z,35.25
2023-04-21T10:23:43.356Z,34.77
2023-04-21T10:26:11.914Z,34.62
2023-04-21T10:28:46.749Z,34.51
2023-04-21T10:31:51.241Z,34.66
2023-04-21T10:34:21.893Z,34.63
2023-04-21T10:36:51.829Z,34.74
2023-04-21T10:39:29.791Z,34.51
2023-04-21T10:42:00.552Z,34.37
2023-04-21T10:44:29.070Z,34.14
2023-04-21T10:46:58.956Z,34.16
2023-04-21T10:49:28.453Z,34.17
2023-04-21T10:51:57.790Z,34.24
2023-04-21T10:54:28.628Z,34.70
2023-04-21T10:56:59.208Z,34.84
2023-04-21T10:59:28.698Z,35.00
2023-04-21T11:01:55.913Z,34.97
2023-04-21T11:04:23.972Z,34.80
2023-04-21T11:07:14.104Z,34.82
2023-04-21T11:09:42.311Z,34.96
2023-04-21T11:12:11.163Z,34.71
2023-04-21T11:14:39.417Z,35.07
2023-04-21T11:17:17.535Z,34.76
2023-04-21T11:19:50.062Z,34.69
2023-04-21T11:22:18.491Z,34.74
2023-04-21T11:24:48.702Z,34.79
2023-04-21T11:27:15.560Z,34.37
2023-04-21T11:29:42.288Z,34.38
2023-04-21T11:32:09.400Z,34.43
2023-04-21T11:34:39.593Z,34.27
2023-04-21T11:37:14.111Z,34.07
2023-04-21T11:39:41.918Z,34.10
2023-04-21T11:42:08.483Z,34.32
2023-04-21T11:44:43.212Z,33.89
2023-04-21T11:47:12.883Z,34.00
2023-04-21T11:49:48.014Z,34.37
2023-04-21T11:52:22.760Z,34.27
2023-04-21T11:54:54.813Z,34.36
2023-04-21T11:57:22.893Z,34.06
2023-04-21T11:59:49.559Z,34.16
2023-04-21T12:02:34.661Z,34.50
2023-04-21T12:05:06.820Z,34.32
2023-04-21T12:07:35.700Z,34.25
2023-04-21T12:10:08.978Z,34.33
2023-04-21T12:12:39.177Z,34.53
2023-04-21T12:15:10.994Z,34.41
2023-04-21T12:17:38.644Z,34.15
2023-04-21T12:20:07.353Z,33.93
2023-04-21T12:22:34.025Z,34.07
2023-04-21T12:25:00.647Z,33.86
2023-04-21T12:27:27.884Z,33.90
2023-04-21T12:29:57.697Z,34.07
2023-04-21T12:32:24.492Z,34.00
2023-04-21T12:34:51.190Z,33.98
2023-04-21T12:37:18.766Z,34.23
2023-04-21T12:39:45.330Z,34.09
2023-04-21T12:42:12.090Z,33.88
2023-04-21T12:44:39.103Z,34.01
2023-04-21T12:47:06.302Z,34.06
2023-04-21T12:49:32.946Z,33.73
2023-04-21T12:51:59.686Z,34.26
2023-04-21T12:54:26.192Z,34.07
2023-04-21T12:56:53.125Z,34.04
2023-04-21T12:59:19.666Z,34.39
2023-04-21T13:01:46.357Z,34.43
2023-04-21T13:04:13.438Z,34.22
2023-04-21T13:06:40.649Z,34.45
2023-04-21T13:09:07.632Z,34.47
2023-04-21T13:11:34.553Z,34.65
2023-04-21T13:14:01.109Z,34.62
2023-04-21T13:16:30.078Z,34.90
2023-04-21T13:18:57.086Z,34.97
2023-04-21T13:21:23.681Z,35.12
2023-04-21T13:23:50.239Z,35.14
2023-04-21T13:26:17.561Z,34.79
2023-04-21T13:28:44.203Z,35.08
2023-04-21T13:31:11.302Z,34.81
2023-04-21T13:33:38.035Z,34.76
2023-04-21T13:36:05.378Z,34.58
2023-04-21T13:38:32.393Z,34.50
2023-04-21T13:40:59.013Z,34.16
2023-04-21T13:43:25.663Z,33.84
2023-04-21T13:45:52.503Z,33.92
2023-04-21T13:48:21.262Z,33.65
2023-04-21T13:50:48.046Z,33.58
2023-04-21T13:53:19.257Z,33.39
2023-04-21T13:55:47.561Z,33.51
2023-04-21T13:58:15.855Z,33.27
2023-04-21T14:00:42.934Z,33.52
2023-04-21T14:03:10.104Z,33.40
2023-04-21T14:05:37.154Z,33.58
2023-04-21T14:08:03.859Z,33.72
2023-04-21T14:10:31.196Z,33.77
2023-04-21T14:12:57.799Z,33.82
2023-04-21T14:15:26.289Z,33.81
2023-04-21T14:17:53.544Z,33.88
2023-04-21T14:20:20.376Z,33.89
2023-04-21T14:22:46.879Z,33.87
2023-04-21T14:25:15.337Z,33.69
2023-04-21T14:27:41.975Z,33.50
2023-04-21T14:30:10.460Z,33.50
2023-04-21T14:32:37.307Z,33.47
2023-04-21T14:35:05.588Z,33.63
2023-04-21T14:37:32.982Z,33.50
2023-04-21T14:39:59.845Z,33.48
2023-04-21T14:42:26.719Z,33.19
2023-04-21T14:44:53.722Z,32.94
2023-04-21T14:47:21.495Z,32.95
2023-04-21T14:49:49.853Z,32.83
2023-04-21T14:52:16.498Z,32.59
2023-04-21T14:54:43.328Z,32.49
2023-04-21T14:57:18.751Z,32.59
2023-04-21T14:59:48.492Z,32.64
2023-04-21T15:02:15.419Z,32.78
2023-04-21T15:04:42.352Z,33.02
2023-04-21T15:07:09.085Z,33.40
2023-04-21T15:09:36.434Z,33.14
2023-04-21T15:12:03.603Z,32.35
2023-04-21T15:14:30.881Z,32.28
2023-04-21T15:16:57.575Z,32.59
2023-04-21T15:19:25.754Z,32.55
2023-04-21T15:21:52.854Z,32.62
2023-04-21T15:24:19.523Z,32.73
2023-04-21T15:26:46.064Z,32.62
2023-04-21T15:29:12.723Z,32.92
2023-04-21T15:31:43.679Z,32.72
2023-04-21T15:34:10.559Z,32.50
2023-04-21T15:36:37.177Z,32.74
2023-04-21T15:39:03.989Z,32.79
2023-04-21T15:41:31.564Z,32.72
2023-04-21T15:43:59.943Z,32.85
2023-04-21T15:46:26.931Z,32.76
2023-04-21T15:48:54.024Z,32.84
2023-04-21T15:51:20.825Z,32.78
2023-04-21T15:53:48.910Z,32.91
2023-04-21T15:56:16.756Z,32.70
2023-04-21T15:58:43.642Z,32.89
2023-04-21T16:01:10.393Z,32.73
2023-04-21T16:03:37.296Z,32.73
2023-04-21T16:06:04.308Z,32.84
2023-04-21T16:08:33.138Z,32.83
2023-04-21T16:11:00.391Z,32.98
2023-04-21T16:13:27.393Z,33.03
2023-04-21T16:15:54.033Z,33.10
2023-04-21T16:18:20.983Z,33.08
2023-04-21T16:20:47.836Z,33.20
2023-04-21T16:23:15.379Z,33.02
2023-04-21T16:25:42.568Z,32.89
2023-04-21T16:28:09.767Z,33.14
2023-04-21T16:30:38.536Z,32.94
2023-04-21T16:33:05.337Z,32.76
2023-04-21T16:35:32.031Z,32.91
2023-04-21T16:37:58.749Z,32.91
2023-04-21T16:40:26.407Z,32.84
2023-04-21T16:42:53.102Z,33.02
2023-04-21T16:45:19.777Z,33.06
2023-04-21T16:47:46.653Z,33.14
2023-04-21T16:50:15.947Z,33.22
2023-04-21T16:52:42.538Z,32.97
2023-04-21T16:55:09.284Z,32.94
2023-04-21T16:57:36.190Z,33.11
2023-04-21T17:00:06.877Z,33.13
2023-04-21T17:02:34.154Z,33.12
2023-04-21T17:05:01.149Z,33.22
2023-04-21T17:07:27.892Z,33.22
2023-04-21T17:09:54.570Z,33.35
2023-04-21T17:12:21.540Z,33.33
2023-04-21T17:14:48.582Z,33.47
2023-04-21T17:17:15.612Z,33.56
2023-04-21T17:19:42.247Z,33.71
2023-04-21T17:22:09.150Z,33.78
2023-04-21T17:24:51.833Z,33.92
2023-04-21T17:27:21.407Z,33.79
2023-04-21T17:29:48.193Z,33.66
2023-04-21T17:32:18.031Z,33.68
2023-04-21T17:34:45.068Z,33.75
2023-04-21T17:37:11.657Z,33.73
2023-04-21T17:39:38.673Z,33.81
2023-04-21T17:42:05.336Z,33.91
2023-04-21T17:44:31.908Z,34.04
2023-04-21T17:46:58.459Z,34.14
2023-04-21T17:49:25.428Z,34.32
2023-04-21T17:51:52.098Z,34.00
2023-04-21T17:54:19.085Z,34.29
2023-04-21T17:56:46.310Z,34.44
2023-04-21T17:59:13.345Z,34.21
2023-04-21T18:01:39.880Z,34.25
2023-04-21T18:04:06.985Z,34.20
2023-04-21T18:06:34.344Z,34.17
2023-04-21T18:09:01.345Z,34.28
2023-04-21T18:11:27.941Z,34.34
2023-04-21T18:13:54.582Z,34.54
2023-04-21T18:16:21.127Z,34.31
2023-04-21T18:18:47.788Z,34.47
2023-04-21T18:21:17.805Z,34.75
2023-04-21T18:23:44.624Z,34.79
2023-04-21T18:26:11.618Z,34.57
2023-04-21T18:28:38.222Z,34.81
2023-04-21T18:31:04.860Z,34.60
2023-04-21T18:33:31.591Z,34.80
2023-04-21T18:35:58.370Z,34.78
2023-04-21T18:38:25.263Z,34.84
2023-04-21T18:40:51.864Z,34.74
2023-04-21T18:43:18.476Z,34.83
2023-04-21T18:45:45.172Z,34.91
2023-04-21T18:48:12.166Z,34.69
2023-04-21T18:50:40.835Z,34.68
2023-04-21T18:53:08.470Z,34.86
2023-04-21T18:55:36.135Z,34.92
2023-04-21T18:58:02.894Z,34.91
2023-04-21T19:00:31.881Z,34.98
2023-04-21T19:03:02.536Z,35.10
2023-04-21T19:05:31.521Z,34.70
2023-04-21T19:07:58.698Z,34.77
2023-04-21T19:10:25.872Z,35.00
2023-04-21T19:12:53.811Z,34.93
2023-04-21T19:15:22.240Z,35.25
2023-04-21T19:17:48.954Z,34.82
2023-04-21T19:20:15.698Z,34.99
2023-04-21T19:22:42.500Z,34.79
2023-04-21T19:25:09.675Z,35.05
2023-04-21T19:27:36.945Z,35.12
2023-04-21T19:30:06.647Z,34.89
2023-04-21T19:32:33.465Z,34.92
2023-04-21T19:35:00.103Z,35.21
2023-04-21T19:37:28.030Z,34.89
2023-04-21T19:39:54.829Z,35.06
2023-04-21T19:42:21.648Z,34.89
2023-04-21T19:44:50.588Z,34.96
2023-04-21T19:47:17.395Z,35.00
2023-04-21T19:49:43.980Z,35.23
2023-04-21T19:52:10.736Z,34.86
2023-04-21T19:54:37.593Z,35.09
2023-04-21T19:57:07.183Z,35.27
2023-04-21T19:59:36.442Z,35.26
2023-04-21T20:02:03.579Z,34.95
2023-04-21T20:04:31.013Z,35.32
2023-04-21T20:06:58.001Z,34.99
2023-04-21T20:09:24.565Z,35.31
2023-04-21T20:11:51.353Z,35.22
2023-04-21T20:14:18.922Z,35.42
2023-04-21T20:16:46.466Z,35.42
2023-04-21T20:19:13.298Z,35.39
2023-04-21T20:21:43.981Z,35.17
2023-04-21T20:24:13.334Z,35.10
2023-04-21T20:26:39.959Z,35.52
2023-04-21T20:29:07.236Z,35.17
2023-04-21T20:31:34.222Z,35.35
2023-04-21T20:34:00.956Z,35.45
2023-04-21T20:36:28.508Z,35.25
2023-04-21T20:38:57.555Z,35.43
2023-04-21T20:41:24.167Z,35.26
2023-04-21T20:43:50.861Z,35.58
2023-04-21T20:46:18.506Z,36.01
2023-04-21T20:48:45.162Z,36.31
2023-04-21T20:51:12.244Z,36.85
2023-04-21T20:53:38.834Z,36.81
2023-04-21T20:56:05.588Z,36.74
2023-04-21T20:58:32.818Z,36.63
2023-04-21T21:00:59.351Z,36.67
2023-04-21T21:03:26.117Z,36.54
2023-04-21T21:05:53.231Z,36.53
2023-04-21T21:08:20.169Z,36.47
2023-04-21T21:10:46.772Z,36.62
2023-04-21T21:13:13.481Z,36.65
2023-04-21T21:15:40.243Z,36.47
2023-04-21T21:18:07.241Z,36.91
2023-04-21T21:20:33.911Z,36.45
2023-04-21T21:23:00.533Z,36.74
2023-04-21T21:25:27.169Z,36.47
2023-04-21T21:27:53.829Z,36.73
2023-04-21T21:30:20.563Z,36.59
2023-04-21T21:32:47.709Z,36.49
2023-04-21T21:35:14.427Z,36.85
2023-04-21T21:37:41.182Z,36.66
2023-04-21T21:40:09.258Z,36.76
2023-04-21T21:42:37.242Z,36.50
2023-04-21T21:45:04.104Z,36.81
2023-04-21T21:47:30.941Z,36.57
2023-04-21T21:49:58.867Z,36.90
2023-04-21T21:52:28.656Z,36.54
2023-04-21T21:54:55.742Z,36.68
2023-04-21T21:57:22.626Z,36.71
2023-04-21T21:59:49.210Z,36.92
2023-04-21T22:02:15.874Z,36.59
2023-04-21T22:04:42.995Z,36.51
2023-04-21T22:07:09.649Z,36.64
2023-04-21T22:09:37.256Z,36.69
2023-04-21T22:12:06.712Z,36.71
2023-04-21T22:14:35.926Z,36.79
2023-04-21T22:17:02.922Z,36.46
2023-04-21T22:19:31.121Z,36.78
2023-04-21T22:21:57.994Z,36.51
2023-04-21T22:24:24.506Z,36.81
2023-04-21T22:26:51.136Z,36.54
2023-04-21T22:29:17.839Z,36.83
2023-04-21T22:31:44.688Z,36.47
2023-04-21T22:34:14.916Z,36.57
2023-04-21T22:36:41.586Z,36.67
2023-04-21T22:39:08.116Z,36.42
2023-04-21T22:41:38.354Z,36.67
2023-04-21T22:44:05.539Z,36.50
2023-04-21T22:46:33.465Z,36.35
2023-04-21T22:49:02.428Z,36.25
2023-04-21T22:51:29.808Z,36.76
2023-04-21T22:53:56.630Z,36.68
2023-04-21T22:56:23.342Z,36.43
2023-04-21T22:58:50.001Z,36.71
2023-04-21T23:01:16.769Z,36.77
2023-04-21T23:03:43.601Z,36.26
2023-04-21T23:06:10.139Z,36.42
2023-04-21T23:08:36.687Z,36.41
2023-04-21T23:11:06.303Z,36.50
2023-04-21T23:13:32.928Z,36.62
2023-04-21T23:15:59.628Z,36.54
2023-04-21T23:18:26.318Z,36.42
2023-04-21T23:20:53.034Z,36.61
2023-04-21T23:23:19.836Z,36.54
2023-04-21T23:25:46.409Z,36.73
2023-04-21T23:28:12.991Z,36.50
2023-04-21T23:30:39.541Z,36.48
2023-04-21T23:33:06.490Z,36.45
2023-04-21T23:35:33.149Z,36.56
2023-04-21T23:37:59.677Z,36.48
2023-04-21T23:40:26.245Z,36.74
2023-04-21T23:42:52.845Z,36.56
2023-04-21T23:45:19.560Z,36.57
2023-04-21T23:47:46.261Z,36.58
2023-04-21T23:50:12.933Z,36.45
2023-04-21T23:52:42.022Z,36.58
2023-04-21T23:55:10.115Z,36.46
2023-04-21T23:57:37.004Z,36.34
